Time;durP1;ratioP1;P1;durP2;ratioP2;P2;SDS_P1;SDS_P2;PMS_P1;PMS_P2;Temp;Humidity;BMP_temperature;BMP_pressure;BME280_temperature;BME280_humidity;BME280_pressure;Samples;Min_cycle;Max_cycle;Signal;HPM_P1;HPM_P2
2023/07/06 00:01:32;;;;;;;3.15;1.40;;;25.80;79.80;;;;;;10944564;32;20041;-72
2023/07/06 00:07:35;;;;;;;3.95;1.33;;;25.80;80.60;;;;;;10933311;32;20027;-74
2023/07/06 00:13:39;;;;;;;1.27;0.77;;;25.70;81.00;;;;;;10944244;32;20038;-75
2023/07/06 00:19:41;;;;;;;2.15;1.08;;;25.60;81.50;;;;;;10943811;32;20022;-73
2023/07/06 00:25:44;;;;;;;4.82;1.23;;;25.40;81.40;;;;;;10945572;32;20019;-73
2023/07/06 00:32:03;;;;;;;1.48;1.15;;;25.50;82.10;;;;;;10944526;32;20049;-74
2023/07/06 00:38:10;;;;;;;2.87;1.10;;;25.50;82.30;;;;;;10946347;32;20048;-74
2023/07/06 00:44:49;;;;;;;1.65;0.62;;;25.60;82.70;;;;;;10946741;32;20019;-76
2023/07/06 00:51:07;;;;;;;4.22;1.62;;;25.40;82.70;;;;;;10945392;32;20041;-76
2023/07/06 00:57:14;;;;;;;2.65;1.20;;;25.20;82.70;;;;;;10946438;32;20015;-75
2023/07/06 01:03:19;;;;;;;1.23;0.90;;;24.80;83.10;;;;;;10945415;32;20041;-75
2023/07/06 01:09:25;;;;;;;2.12;0.95;;;24.80;83.80;;;;;;10943468;32;20047;-75
2023/07/06 01:15:33;;;;;;;1.45;0.77;;;24.80;83.40;;;;;;10945132;32;20050;-75
2023/07/06 01:22:22;;;;;;;1.02;0.82;;;24.90;83.50;;;;;;10944285;32;20019;-74
2023/07/06 01:28:50;;;;;;;1.90;0.73;;;25.00;83.20;;;;;;10943390;32;20019;-75
2023/07/06 01:34:59;;;;;;;3.20;0.85;;;25.00;83.00;;;;;;10917100;32;20030;-75
2023/07/06 01:41:01;;;;;;;0.80;0.60;;;25.10;82.70;;;;;;10944131;32;20034;-75
2023/07/06 01:47:04;;;;;;;1.50;0.68;;;25.00;82.50;;;;;;10929012;32;20034;-75
2023/07/06 01:53:25;;;;;;;1.02;0.55;;;25.00;82.30;;;;;;10929856;32;20100;-75
2023/07/06 01:59:32;;;;;;;0.85;0.80;;;24.90;82.00;;;;;;10943603;32;20072;-75
2023/07/06 02:05:38;;;;;;;1.87;1.10;;;24.90;81.70;;;;;;10942757;32;20030;-75
2023/07/06 02:11:40;;;;;;;2.12;1.10;;;24.90;81.60;;;;;;10928024;32;20058;-75
2023/07/06 02:17:46;;;;;;;3.20;1.50;;;24.90;82.30;;;;;;10941741;32;20038;-75
2023/07/06 02:23:49;;;;;;;3.10;1.60;;;24.90;82.10;;;;;;10943396;32;20046;-75
2023/07/06 02:29:51;;;;;;;2.65;1.48;;;24.90;81.60;;;;;;10942193;32;20041;-75
2023/07/06 02:35:53;;;;;;;1.75;0.98;;;24.90;81.90;;;;;;10942755;32;20020;-75
2023/07/06 02:41:56;;;;;;;3.22;1.50;;;24.80;82.20;;;;;;10942032;32;20029;-75
2023/07/06 02:47:58;;;;;;;1.67;1.20;;;24.80;81.90;;;;;;10941832;32;20034;-75
2023/07/06 02:54:00;;;;;;;4.32;1.98;;;24.80;82.00;;;;;;10941761;32;20015;-75
2023/07/06 03:00:09;;;;;;;3.33;2.22;;;24.80;81.80;;;;;;10939313;32;20023;-75
2023/07/06 03:06:12;;;;;;;2.20;1.15;;;24.70;81.50;;;;;;10940995;32;20023;-75
2023/07/06 03:12:14;;;;;;;4.43;2.35;;;24.70;81.30;;;;;;10942659;32;20386;-75
2023/07/06 03:18:18;;;;;;;5.47;2.25;;;24.60;81.50;;;;;;10928527;32;20057;-75
2023/07/06 03:24:20;;;;;;;3.33;1.70;;;24.60;81.30;;;;;;10940590;32;20027;-75
2023/07/06 03:30:27;;;;;;;1.65;1.23;;;24.50;81.20;;;;;;10939739;32;20366;-75
2023/07/06 03:36:31;;;;;;;3.05;0.90;;;24.40;81.10;;;;;;10947706;32;20019;-75
2023/07/06 03:42:33;;;;;;;3.33;1.25;;;24.30;81.20;;;;;;10948417;32;20023;-75
2023/07/06 03:48:36;;;;;;;2.33;0.80;;;24.30;81.40;;;;;;10948052;32;20011;-75
2023/07/06 03:54:38;;;;;;;0.95;0.60;;;24.30;81.40;;;;;;10933078;32;20027;-74
2023/07/06 04:00:41;;;;;;;0.68;0.65;;;24.30;81.30;;;;;;10943074;32;20019;-75
2023/07/06 04:06:43;;;;;;;0.88;0.50;;;24.20;82.00;;;;;;10947422;32;20023;-75
2023/07/06 04:12:45;;;;;;;2.00;0.82;;;24.30;81.80;;;;;;10943557;32;20031;-74
2023/07/06 04:18:47;;;;;;;1.15;0.80;;;24.30;81.70;;;;;;10947260;32;20047;-75
2023/07/06 04:24:49;;;;;;;1.60;0.80;;;24.30;81.90;;;;;;10946867;32;20326;-75
2023/07/06 04:30:51;;;;;;;1.75;0.82;;;24.30;81.90;;;;;;10931850;32;20038;-75
2023/07/06 04:36:53;;;;;;;1.27;0.50;;;24.10;82.00;;;;;;10945124;32;20041;-74
2023/07/06 04:42:55;;;;;;;0.45;0.40;;;24.10;82.00;;;;;;10944361;32;20015;-74
2023/07/06 04:48:57;;;;;;;0.55;0.55;;;24.20;82.10;;;;;;10944575;32;20444;-74
2023/07/06 04:54:59;;;;;;;0.93;0.60;;;24.30;81.80;;;;;;10941667;32;20019;-74
2023/07/06 05:01:07;;;;;;;3.42;0.60;;;24.40;82.10;;;;;;10930135;32;20027;-74
2023/07/06 05:07:12;;;;;;;1.37;0.75;;;24.40;82.20;;;;;;10944115;32;20054;-74
2023/07/06 05:13:15;;;;;;;1.25;0.90;;;24.40;82.30;;;;;;10943483;32;20045;-74
2023/07/06 05:19:17;;;;;;;0.50;0.30;;;24.40;82.40;;;;;;10943528;32;20518;-74
2023/07/06 05:25:19;;;;;;;1.17;0.70;;;24.40;82.80;;;;;;10940847;32;20327;-73
2023/07/06 05:31:21;;;;;;;0.65;0.50;;;24.40;82.90;;;;;;10929830;32;20046;-74
2023/07/06 05:37:24;;;;;;;5.40;1.05;;;24.40;83.10;;;;;;10929114;32;20046;-73
2023/07/06 05:43:26;;;;;;;0.60;0.50;;;24.50;83.20;;;;;;10925174;32;20453;-73
2023/07/06 05:49:28;;;;;;;2.28;0.95;;;24.40;82.90;;;;;;10942623;32;20341;-73
2023/07/06 05:55:30;;;;;;;0.43;0.35;;;24.40;83.30;;;;;;10927351;32;20325;-73
2023/07/06 06:01:32;;;;;;;0.32;0.30;;;24.40;83.50;;;;;;10940963;32;20049;-73
2023/07/06 06:07:34;;;;;;;1.25;0.73;;;24.40;83.40;;;;;;10942233;32;20046;-73
2023/07/06 06:13:36;;;;;;;1.33;0.43;;;24.50;83.60;;;;;;10941981;32;20019;-73
2023/07/06 06:19:38;;;;;;;1.35;0.98;;;24.40;83.90;;;;;;10941937;32;20015;-73
2023/07/06 06:25:40;;;;;;;2.00;0.90;;;24.30;84.10;;;;;;10939628;32;20015;-73
2023/07/06 06:31:42;;;;;;;0.43;0.30;;;24.30;84.00;;;;;;10941690;32;20019;-73
2023/07/06 06:37:45;;;;;;;0.85;0.52;;;24.30;84.00;;;;;;10941641;32;20007;-73
2023/07/06 06:43:47;;;;;;;2.45;1.10;;;24.40;84.10;;;;;;10937808;32;20019;-75
2023/07/06 06:49:48;;;;;;;1.35;1.10;;;24.30;84.20;;;;;;10938643;32;20049;-73
2023/07/06 06:55:50;;;;;;;0.80;0.52;;;24.20;84.60;;;;;;10941311;32;20024;-73
2023/07/06 07:01:53;;;;;;;0.62;0.60;;;24.30;84.70;;;;;;10937877;32;20444;-73
2023/07/06 07:07:55;;;;;;;2.17;0.88;;;24.30;84.90;;;;;;10939574;32;20023;-72
2023/07/06 07:13:57;;;;;;;1.05;0.60;;;24.30;84.70;;;;;;10945443;32;20058;-72
2023/07/06 07:19:59;;;;;;;1.98;0.88;;;24.30;84.70;;;;;;10920811;32;20050;-73
2023/07/06 07:26:03;;;;;;;0.90;0.60;;;24.30;84.70;;;;;;10946590;32;20058;-73
2023/07/06 07:32:05;;;;;;;3.87;1.67;;;24.40;84.60;;;;;;10124350;32;22011699;-73
2023/07/06 07:38:07;;;;;;;1.45;0.98;;;24.40;84.70;;;;;;10794861;33;20024;-73
2023/07/06 07:44:10;;;;;;;1.92;0.85;;;24.40;84.70;;;;;;10794490;33;20044;-72
2023/07/06 07:50:11;;;;;;;0.37;0.37;;;24.40;84.70;;;;;;10791358;33;20441;-73
2023/07/06 07:56:15;;;;;;;1.45;0.77;;;24.50;84.60;;;;;;10871269;32;20046;-73
2023/07/06 08:02:17;;;;;;;2.55;0.90;;;24.50;84.50;;;;;;10903887;32;20027;-73
2023/07/06 08:08:22;;;;;;;2.35;0.73;;;24.50;84.30;;;;;;10908484;32;20049;-73
2023/07/06 08:14:36;;;;;;;4.82;2.03;;;24.30;83.20;;;;;;10904438;32;20016;-73
2023/07/06 08:20:38;;;;;;;5.87;1.30;;;24.00;82.80;;;;;;10908040;32;20046;-73
2023/07/06 08:26:40;;;;;;;3.37;1.87;;;23.80;82.90;;;;;;10907764;32;20106;-73
2023/07/06 08:32:42;;;;;;;2.20;1.15;;;23.60;81.90;;;;;;10907903;32;20394;-72
2023/07/06 08:38:44;;;;;;;6.50;1.92;;;23.40;81.20;;;;;;10907493;32;20019;-73
2023/07/06 08:44:52;;;;;;;3.62;1.85;;;23.30;80.70;;;;;;10907135;32;20020;-72
2023/07/06 08:51:15;;;;;;;2.87;1.30;;;23.10;80.80;;;;;;10905233;32;20045;-74
2023/07/06 08:57:21;;;;;;;1.35;1.20;;;22.80;80.60;;;;;;10906947;32;20027;-74
2023/07/06 09:03:23;;;;;;;3.45;1.20;;;22.80;81.60;;;;;;10906476;32;20011;-75
2023/07/06 09:09:28;;;;;;;2.70;1.15;;;22.90;82.40;;;;;;10906400;32;20046;-76
2023/07/06 09:15:31;;;;;;;1.98;1.20;;;23.10;83.10;;;;;;10903674;32;20039;-74
2023/07/06 09:21:33;;;;;;;2.55;1.20;;;23.20;83.60;;;;;;10905820;32;20023;-76
2023/07/06 09:27:37;;;;;;;6.28;1.60;;;23.10;84.00;;;;;;10905610;32;20031;-75
2023/07/06 09:33:48;;;;;;;4.35;1.98;;;23.00;84.20;;;;;;10882929;32;20050;-74
2023/07/06 09:40:09;;;;;;;2.58;1.23;;;22.90;84.50;;;;;;10852892;32;20024;-76
2023/07/06 09:46:14;;;;;;;1.75;1.12;;;23.10;84.40;;;;;;10865442;32;20062;-76
2023/07/06 09:52:18;;;;;;;2.80;1.17;;;23.40;84.30;;;;;;10853723;32;20050;-75
2023/07/06 09:58:24;;;;;;;1.33;1.00;;;23.50;84.40;;;;;;10867486;32;20024;-74
2023/07/06 10:04:38;;;;;;;1.62;1.15;;;23.50;84.80;;;;;;10866838;32;20023;-74
2023/07/06 10:11:05;;;;;;;4.80;1.60;;;23.70;85.00;;;;;;10866891;32;20035;-74
2023/07/06 10:17:13;;;;;;;2.30;0.88;;;23.80;84.50;;;;;;10867582;32;20051;-73
2023/07/06 10:23:34;;;;;;;;;;;23.90;84.50;;;;;;10863699;32;20023;-74
2023/07/06 10:29:48;;;;;;;2.60;1.17;;;24.20;84.60;;;;;;10892362;32;19945;-75
2023/07/06 10:35:52;;;;;;;3.15;0.73;;;24.30;84.50;;;;;;10927923;32;20104;-73
2023/07/06 10:42:04;;;;;;;1.48;0.80;;;24.40;84.90;;;;;;10943621;32;20010;-74
2023/07/06 10:48:15;;;;;;;1.30;0.80;;;24.30;84.70;;;;;;10949121;32;20031;-74
2023/07/06 10:54:21;;;;;;;4.75;1.27;;;24.30;84.90;;;;;;10949104;32;20015;-72
2023/07/06 11:00:35;;;;;;;2.58;1.15;;;24.20;85.20;;;;;;10949034;32;20349;-73
2023/07/06 11:07:14;;;;;;;4.18;1.35;;;24.10;85.40;;;;;;10833334;32;20050;-73
2023/07/06 11:13:47;;;;;;;3.83;1.55;;;24.00;84.40;;;;;;10832553;32;20029;-73
2023/07/06 11:19:56;;;;;;;4.53;1.37;;;23.90;83.30;;;;;;10832886;32;20175;-73
2023/07/06 11:25:59;;;;;;;1.92;0.95;;;23.80;83.90;;;;;;10830218;32;20090;-73
2023/07/06 11:32:12;;;;;;;1.95;1.17;;;24.00;83.90;;;;;;10832691;32;20035;-73
2023/07/06 11:38:30;;;;;;;3.28;1.40;;;24.10;83.70;;;;;;10935903;32;20041;-73
2023/07/06 11:44:32;;;;;;;2.13;1.00;;;24.10;83.80;;;;;;10947459;32;20019;-73
2023/07/06 11:50:39;;;;;;;1.62;1.23;;;24.00;84.10;;;;;;10947278;32;20334;-72
2023/07/06 11:57:13;;;;;;;2.90;1.52;;;24.20;83.90;;;;;;10946450;32;20019;-73
2023/07/06 12:03:14;;;;;;;3.20;1.40;;;24.20;83.30;;;;;;10946783;32;20048;-72
2023/07/06 12:09:22;;;;;;;2.12;1.42;;;24.30;83.50;;;;;;10946450;32;20439;-72
2023/07/06 12:15:24;;;;;;;1.52;0.88;;;24.30;83.30;;;;;;10932886;32;20026;-72
2023/07/06 12:21:31;;;;;;;2.25;1.10;;;24.30;83.10;;;;;;10946268;32;20015;-72
2023/07/06 12:27:56;;;;;;;1.67;0.93;;;24.30;82.90;;;;;;10945937;32;20330;-72
2023/07/06 12:34:00;;;;;;;2.20;1.27;;;24.40;82.70;;;;;;10793628;33;20086;-72
2023/07/06 12:40:02;;;;;;;1.05;0.70;;;24.40;82.40;;;;;;10780975;33;20029;-72
2023/07/06 12:46:04;;;;;;;4.07;1.60;;;24.40;82.30;;;;;;10756491;33;20426;-72
2023/07/06 12:52:12;;;;;;;4.57;2.12;;;24.30;81.70;;;;;;10756174;33;20021;-72
2023/07/06 12:58:27;;;;;;;2.03;0.60;;;24.30;81.50;;;;;;10743701;33;20055;-72
2023/07/06 13:04:43;;;;;;;5.70;1.60;;;24.40;81.60;;;;;;10755001;33;20187;-73
2023/07/06 13:10:54;;;;;;;2.92;1.65;;;24.50;82.00;;;;;;10858028;32;20046;-73
2023/07/06 13:16:57;;;;;;;1.50;0.95;;;24.40;82.50;;;;;;10906392;32;20030;-73
2023/07/06 13:23:00;;;;;;;2.03;1.45;;;24.50;83.10;;;;;;10906237;32;20077;-72
2023/07/06 13:29:02;;;;;;;3.55;1.87;;;24.80;82.60;;;;;;10905784;32;20042;-73
2023/07/06 13:35:04;;;;;;;2.35;1.20;;;25.00;81.50;;;;;;10905777;32;20311;-72
2023/07/06 13:41:11;;;;;;;4.43;1.35;;;25.40;80.40;;;;;;10905516;32;20330;-73
2023/07/06 13:47:13;;;;;;;2.67;1.52;;;25.80;79.60;;;;;;10905044;32;20312;-72
2023/07/06 13:53:15;;;;;;;3.28;1.58;;;25.90;79.30;;;;;;10904837;32;20015;-73
2023/07/06 13:59:19;;;;;;;3.67;1.52;;;26.00;79.40;;;;;;10893340;32;20019;-73
2023/07/06 14:05:21;;;;;;;2.28;1.12;;;26.10;79.70;;;;;;10876809;32;20031;-73
2023/07/06 14:11:24;;;;;;;2.78;1.40;;;26.30;78.20;;;;;;10891196;32;20011;-73
2023/07/06 14:17:26;;;;;;;2.70;1.40;;;26.50;77.30;;;;;;10904117;32;20015;-71
2023/07/06 14:23:28;;;;;;;3.15;1.60;;;26.50;77.50;;;;;;10904259;32;20019;-73
2023/07/06 14:29:31;;;;;;;2.35;1.30;;;26.50;78.10;;;;;;10901463;32;20015;-73
2023/07/06 14:35:37;;;;;;;2.42;1.40;;;26.40;77.40;;;;;;10891490;32;20322;-73
2023/07/06 14:41:40;;;;;;;2.47;1.47;;;26.50;76.70;;;;;;10903919;32;20066;-71
2023/07/06 14:47:42;;;;;;;3.00;1.67;;;26.60;76.20;;;;;;10890309;32;20054;-73
2023/07/06 14:53:44;;;;;;;1.48;1.23;;;26.50;76.90;;;;;;10900271;32;20479;-72
2023/07/06 14:59:46;;;;;;;3.83;1.98;;;26.40;76.50;;;;;;10900845;32;20023;-71
2023/07/06 15:05:50;;;;;;;2.95;1.50;;;26.50;76.10;;;;;;10903138;32;20027;-73
2023/07/06 15:11:52;;;;;;;2.15;1.50;;;26.40;76.80;;;;;;10902931;32;20435;-73
2023/07/06 15:17:54;;;;;;;4.72;2.17;;;26.40;77.10;;;;;;10902933;32;20445;-73
2023/07/06 15:23:56;;;;;;;2.03;1.30;;;26.40;76.40;;;;;;10902680;32;20410;-72
2023/07/06 15:29:59;;;;;;;4.85;1.75;;;26.40;76.00;;;;;;10909678;27;20058;-72
2023/07/06 15:36:01;;;;;;;2.35;1.37;;;26.60;75.60;;;;;;10909128;32;20058;-72
2023/07/06 15:42:03;;;;;;;6.95;1.50;;;26.60;74.50;;;;;;10909366;32;20349;-72
2023/07/06 15:48:05;;;;;;;5.10;2.08;;;26.50;74.30;;;;;;10909333;32;20062;-71
2023/07/06 15:54:09;;;;;;;9.85;1.62;;;26.60;74.80;;;;;;10908271;32;20042;-72
2023/07/06 16:00:12;;;;;;;3.05;1.70;;;26.70;76.10;;;;;;10907553;32;20042;-71
2023/07/06 16:06:13;;;;;;;3.15;1.58;;;26.60;75.10;;;;;;10908584;32;20322;-72
2023/07/06 16:12:16;;;;;;;1.60;1.12;;;26.80;74.80;;;;;;10908262;32;20020;-71
2023/07/06 16:18:18;;;;;;;3.15;1.50;;;26.90;74.60;;;;;;10906209;32;20027;-72
2023/07/06 16:24:35;;;;;;;2.20;1.33;;;26.90;74.50;;;;;;10902124;32;20081;-72
2023/07/06 16:30:37;;;;;;;2.93;1.40;;;26.90;75.00;;;;;;10894691;32;20024;-72
2023/07/06 16:36:39;;;;;;;3.92;1.37;;;26.90;75.00;;;;;;10908858;32;20039;-71
2023/07/06 16:42:41;;;;;;;1.87;1.10;;;27.00;74.40;;;;;;10893798;32;20039;-71
2023/07/06 16:48:44;;;;;;;3.55;1.42;;;27.10;73.90;;;;;;10908637;32;20023;-71
2023/07/06 16:54:46;;;;;;;2.20;0.95;;;27.20;73.00;;;;;;10904396;32;20015;-70
2023/07/06 17:00:48;;;;;;;2.92;1.10;;;27.20;72.30;;;;;;10903937;32;20046;-71
2023/07/06 17:06:51;;;;;;;2.12;1.23;;;27.20;72.30;;;;;;10907953;32;20382;-71
2023/07/06 17:12:54;;;;;;;3.30;1.20;;;27.20;72.40;;;;;;10889039;32;20057;-71
2023/07/06 17:18:56;;;;;;;2.03;1.15;;;27.30;72.40;;;;;;10906877;32;20012;-71
2023/07/06 17:24:59;;;;;;;2.70;1.52;;;27.30;72.30;;;;;;10904567;32;20327;-71
2023/07/06 17:31:06;;;;;;;2.58;1.25;;;27.30;71.80;;;;;;10896879;32;20019;-71
2023/07/06 17:37:08;;;;;;;2.90;1.73;;;27.30;71.90;;;;;;10907313;32;20424;-71
2023/07/06 17:43:11;;;;;;;1.75;1.15;;;27.30;72.20;;;;;;10905424;32;20337;-71
2023/07/06 17:49:13;;;;;;;2.20;1.12;;;27.30;71.70;;;;;;10904747;32;20050;-71
2023/07/06 17:55:20;;;;;;;3.05;1.25;;;27.30;72.10;;;;;;10890513;32;20031;-71
2023/07/06 18:01:22;;;;;;;2.05;1.08;;;28.00;71.40;;;;;;10902453;32;20420;-71
2023/07/06 18:07:24;;;;;;;1.70;1.37;;;29.00;68.90;;;;;;10905638;32;20020;-71
2023/07/06 18:13:27;;;;;;;2.45;1.05;;;28.40;69.90;;;;;;10892280;32;20038;-71
2023/07/06 18:19:29;;;;;;;1.80;1.10;;;27.80;71.60;;;;;;10890647;32;20043;-71
2023/07/06 18:25:31;;;;;;;1.70;1.10;;;27.30;72.60;;;;;;10905469;32;20023;-71
2023/07/06 18:31:34;;;;;;;1.92;0.95;;;27.10;73.20;;;;;;10904324;32;20016;-71
2023/07/06 18:37:36;;;;;;;2.95;1.05;;;26.80;73.80;;;;;;10904964;32;20019;-71
2023/07/06 18:43:38;;;;;;;1.70;1.00;;;26.60;74.30;;;;;;10903471;32;20050;-71
2023/07/06 18:49:40;;;;;;;2.05;1.10;;;26.40;74.50;;;;;;10883231;32;20058;-71
2023/07/06 18:55:45;;;;;;;5.75;1.60;;;26.30;75.00;;;;;;10904537;32;20016;-71
2023/07/06 19:01:47;;;;;;;1.62;0.98;;;26.20;75.20;;;;;;10903949;32;20065;-71
2023/07/06 19:07:49;;;;;;;2.37;1.25;;;26.00;75.60;;;;;;10896490;32;20092;-71
2023/07/06 19:13:52;;;;;;;3.08;1.23;;;25.90;76.00;;;;;;10911148;32;20322;-71
2023/07/06 19:19:54;;;;;;;1.30;0.80;;;25.80;76.40;;;;;;10910335;32;20038;-71
2023/07/06 19:25:57;;;;;;;2.78;1.12;;;25.80;76.60;;;;;;10911415;32;20389;-71
2023/07/06 19:32:00;;;;;;;1.98;1.08;;;25.80;76.80;;;;;;10909706;32;20047;-70
2023/07/06 19:38:03;;;;;;;9.80;4.72;;;25.60;77.00;;;;;;10895905;32;20035;-70
2023/07/06 19:44:05;;;;;;;10.85;6.37;;;25.60;77.30;;;;;;10908478;32;20394;-71
2023/07/06 19:50:07;;;;;;;3.78;2.20;;;25.50;77.50;;;;;;10910444;32;20046;-71
2023/07/06 19:56:09;;;;;;;6.18;2.45;;;25.40;77.30;;;;;;10908978;32;20051;-71
2023/07/06 20:02:12;;;;;;;4.30;2.10;;;25.30;77.80;;;;;;10893509;32;20019;-71
2023/07/06 20:08:16;;;;;;;7.47;4.37;;;25.20;77.90;;;;;;10908097;32;20032;-70
2023/07/06 20:14:18;;;;;;;4.15;2.00;;;25.10;78.10;;;;;;10893974;32;20053;-70
2023/07/06 20:20:21;;;;;;;5.78;2.87;;;25.10;78.30;;;;;;10908882;32;20011;-71
2023/07/06 20:26:23;;;;;;;5.05;2.00;;;25.10;78.50;;;;;;10908528;32;20042;-71
2023/07/06 20:32:25;;;;;;;4.80;2.30;;;25.10;78.60;;;;;;10907514;32;20015;-71
2023/07/06 20:38:27;;;;;;;4.15;1.65;;;25.10;78.80;;;;;;10907281;32;20037;-71
2023/07/06 20:44:29;;;;;;;4.62;2.35;;;25.00;79.00;;;;;;10906888;32;20020;-71
2023/07/06 20:50:31;;;;;;;4.45;2.42;;;24.90;79.10;;;;;;10907216;32;20046;-71
2023/07/06 20:56:34;;;;;;;2.53;1.48;;;24.90;79.10;;;;;;10906974;32;20342;-71
2023/07/06 21:02:36;;;;;;;2.15;1.37;;;24.90;79.70;;;;;;10906726;32;20349;-71
2023/07/06 21:08:38;;;;;;;2.25;1.45;;;24.90;80.20;;;;;;10906538;32;20432;-71
2023/07/06 21:14:40;;;;;;;6.65;2.17;;;24.90;80.20;;;;;;10906218;32;20059;-71
2023/07/06 21:20:42;;;;;;;2.60;1.48;;;24.90;80.00;;;;;;10906132;32;20007;-70
2023/07/06 21:26:45;;;;;;;4.43;2.47;;;24.80;80.10;;;;;;10905031;32;20054;-71
2023/07/06 21:32:47;;;;;;;2.17;1.45;;;24.80;80.10;;;;;;10903055;32;20023;-71
2023/07/06 21:38:49;;;;;;;3.70;1.90;;;24.80;80.30;;;;;;10891579;32;20028;-70
2023/07/06 21:44:51;;;;;;;5.55;2.30;;;24.80;80.70;;;;;;10905343;32;20031;-70
2023/07/06 21:50:55;;;;;;;3.35;1.70;;;24.70;80.60;;;;;;10905349;32;20019;-70
2023/07/06 21:56:57;;;;;;;3.28;2.15;;;24.60;80.60;;;;;;10885282;32;20054;-70
2023/07/06 22:02:59;;;;;;;4.78;2.30;;;24.50;80.70;;;;;;10894543;32;20024;-70
2023/07/06 22:09:06;;;;;;;2.28;1.77;;;24.60;80.60;;;;;;10904552;32;20069;-70
2023/07/06 22:15:08;;;;;;;2.67;1.60;;;24.50;80.70;;;;;;10904513;32;20023;-70
2023/07/06 22:21:11;;;;;;;2.33;1.23;;;24.30;80.80;;;;;;10904318;32;20078;-71
2023/07/06 22:27:13;;;;;;;1.58;1.20;;;24.30;80.90;;;;;;10904074;32;20302;-70
2023/07/06 22:33:15;;;;;;;2.40;1.25;;;24.30;80.60;;;;;;10904252;32;20015;-70
2023/07/06 22:39:17;;;;;;;4.40;2.22;;;24.30;80.60;;;;;;10908006;32;20011;-70
2023/07/06 22:45:19;;;;;;;2.55;1.50;;;24.30;80.70;;;;;;10911508;32;20019;-70
2023/07/06 22:51:39;;;;;;;2.72;1.77;;;24.30;80.70;;;;;;10911411;32;20471;-70
2023/07/06 22:57:41;;;;;;;2.03;1.50;;;24.30;80.60;;;;;;10897696;32;20031;-70
2023/07/06 23:03:43;;;;;;;3.50;2.53;;;24.20;81.10;;;;;;10911150;32;20330;-70
2023/07/06 23:09:47;;;;;;;3.37;1.83;;;24.10;81.30;;;;;;10910890;32;20047;-70
2023/07/06 23:15:50;;;;;;;3.75;2.20;;;24.00;81.30;;;;;;10910689;32;20437;-70
2023/07/06 23:21:55;;;;;;;4.37;2.22;;;23.90;81.40;;;;;;10910449;32;20303;-70
2023/07/06 23:28:04;;;;;;;2.90;1.80;;;23.90;81.40;;;;;;10913837;27;20054;-70
2023/07/06 23:34:06;;;;;;;4.12;2.25;;;23.90;81.40;;;;;;10910133;32;20020;-70
2023/07/06 23:40:11;;;;;;;4.45;2.85;;;23.90;81.50;;;;;;10909851;32;20007;-70
2023/07/06 23:46:13;;;;;;;4.03;2.65;;;23.80;81.50;;;;;;10909634;32;20027;-70
2023/07/06 23:52:15;;;;;;;6.07;3.17;;;23.70;81.70;;;;;;10908596;32;20046;-70
2023/07/06 23:58:17;;;;;;;3.53;2.30;;;23.60;81.80;;;;;;10909122;32;20322;-70
